KARG

Details ICAO KARG
Name WALNUT RIDGE RGNL
Region United States
Timezone America/Chicago (UTC-6.0)
Plans Departing 3
Arriving 4
Stats Elevation 273 ft / 83 m (AMSL)
Location 36.125015° -90.925008°
Runways 3
Magnetic Variation 0.771° W
Sunrise 2017-12-11 13:06:08 UTC / 2017-12-11 07:06:08 Local
Sunset 2017-12-11 22:50:55 UTC / 2017-12-11 16:50:55 Local
Advertisement - Login to hide

Runways

ID Width Length Bearing (true) Bearing (mag) Surface Threshold Offset Overrun Length
04 150 ft / 46 m 6,002 ft / 1,829 m 44.92° 45.69° Concrete 0 ft / 0 m 0 ft / 0 m
13 150 ft / 46 m 5,004 ft / 1,525 m 135.15° 135.92° Concrete 0 ft / 0 m 0 ft / 0 m
18 150 ft / 46 m 5,014 ft / 1,528 m 180.03° 180.80° Concrete 0 ft / 0 m 0 ft / 0 m
22 150 ft / 46 m 6,002 ft / 1,829 m 224.93° 225.70° Concrete 0 ft / 0 m 0 ft / 0 m
31 150 ft / 46 m 5,004 ft / 1,525 m 315.16° 315.93° Concrete 0 ft / 0 m 0 ft / 0 m
36 150 ft / 46 m 5,014 ft / 1,528 m 0.03° 0.80° Concrete 0 ft / 0 m 0 ft / 0 m

Map

Weather


0- 5 10 15 20 25 30 35+ Temperature / ° C

Clouds and Precipitation
Forecast for 2017-12-11 12:00 UTC. Updated 17 minutes ago

Ground ~20,000 ft ~40,000 ft Winds

METAR

KARG 110656Z AUTO 23006KT 10SM CLR 02/M03 A3017 RMK AO2 SLP221 T00171033 FZRANO

TAF

Not found

Frequencies

Recorded 135.92 MHz AWOS 3
Unicom 122.80 MHz CTAF/UNICOM
Warning: Do not use this data for real-world aviation or navigation. No guarantee of current accuracy is given.